Terminal Aerodrome Forecast
Issued by NWS Sioux Falls, SD

Home | Current Version | Previous Version | Graphics & Text | Print | Product List | Glossary On
Versions: 1 2 3 4 5 6 7 8 9 10 11 12 13 14 15 16 17 18 19 20 21 22 23
000
FTUS43 KFSD 011611 AAB
TAFFSD
TAF AMD
KFSD 011611Z 0116/0212 21008KT P6SM SCT015 BKN100
     FM011800 21005KT P6SM BKN015
     FM012000 21004KT P6SM BKN025
     FM012200 VRB03KT P6SM SCT030 BKN120
     FM020600 01006KT P6SM SCT040 BKN100=

USA.gov is the U.S. government's official web portal to all federal, state and local government web resources and services.